Time;durP1;ratioP1;P1;durP2;ratioP2;P2;SDS_P1;SDS_P2;PMS_P1;PMS_P2;Temp;Humidity;BMP_temperature;BMP_pressure;BME280_temperature;BME280_humidity;BME280_pressure;Samples;Min_cycle;Max_cycle;Signal;HPM_P1;HPM_P2
2023/04/09 00:03:31;;;;;;;;;;;3.50;99.90;;;;;;8243588;28;19913;-79
2023/04/09 00:07:32;;;;;;;;;;;3.50;99.90;;;;;;8243409;28;19910;-80
2023/04/09 00:11:32;;;;;;;;;;;3.60;99.90;;;;;;8228920;28;19916;-80
2023/04/09 00:15:33;;;;;;;;;;;3.60;99.90;;;;;;8246315;28;19906;-79
2023/04/09 00:19:33;;;;;;;;;;;3.60;99.90;;;;;;8265515;28;19916;-80
2023/04/09 00:23:34;;;;;;;;;;;3.80;99.90;;;;;;8226285;28;20053;-80
2023/04/09 00:27:35;;;;;;;;;;;3.90;99.90;;;;;;8219604;28;19914;-78
2023/04/09 00:31:35;;;;;;;;;;;4.20;99.90;;;;;;8243878;28;20398;-78
2023/04/09 00:35:36;;;;;;;;;;;4.40;99.90;;;;;;8247914;28;20370;-79
2023/04/09 00:39:36;;;;;;;;;;;4.70;99.90;;;;;;8260044;28;19951;-79
2023/04/09 00:43:37;;;;;;;;;;;4.40;99.90;;;;;;8232602;28;19906;-80
2023/04/09 00:47:38;;;;;;;;;;;4.30;99.90;;;;;;8230205;28;19945;-77
2023/04/09 00:51:38;;;;;;;;;;;4.10;99.90;;;;;;8249142;28;19916;-79
2023/04/09 00:55:40;;;;;;;;;;;4.00;99.90;;;;;;8232879;28;19975;-80
2023/04/09 00:59:41;;;;;;;;;;;4.00;99.90;;;;;;8246415;28;20453;-80
2023/04/09 01:03:41;;;;;;;;;;;3.70;99.90;;;;;;8234173;28;20275;-80
2023/04/09 01:07:42;;;;;;;;;;;3.70;99.90;;;;;;8244679;28;19909;-79
2023/04/09 01:12:02;;;;;;;;;;;3.60;99.90;;;;;;8226837;28;19913;-79
2023/04/09 01:16:02;;;;;;;;;;;3.80;99.90;;;;;;8250225;28;19913;-80
2023/04/09 01:20:11;;;;;;;;;;;3.60;99.90;;;;;;8228756;28;19906;-79
2023/04/09 01:24:14;;;;;;;;;;;3.60;99.90;;;;;;8246987;28;20049;-80
2023/04/09 01:28:17;;;;;;;;;;;3.80;99.90;;;;;;8239766;28;20012;-80
2023/04/09 01:32:18;;;;;;;;;;;3.50;99.90;;;;;;8245494;28;19952;-80
2023/04/09 01:36:19;;;;;;;;;;;3.40;99.90;;;;;;8237933;28;20007;-80
2023/04/09 01:40:20;;;;;;;;;;;3.40;99.90;;;;;;8232084;28;19910;-80
2023/04/09 01:44:22;;;;;;;;;;;3.40;99.90;;;;;;8238156;28;19937;-79
2023/04/09 01:48:23;;;;;;;;;;;4.00;99.90;;;;;;8238684;28;19921;-79
2023/04/09 01:52:23;;;;;;;;;;;3.80;99.90;;;;;;8259734;28;19909;-80
2023/04/09 01:56:24;;;;;;;;;;;3.50;99.90;;;;;;8241419;28;19914;-79
2023/04/09 02:00:28;;;;;;;;;;;3.30;99.90;;;;;;8251475;28;20000;-79
2023/04/09 02:04:34;;;;;;;;;;;3.60;99.90;;;;;;8246665;28;19992;-79
2023/04/09 02:08:35;;;;;;;;;;;3.40;99.90;;;;;;8238254;28;19913;-80
2023/04/09 02:12:36;;;;;;;;;;;3.50;99.90;;;;;;8247194;28;19910;-79
2023/04/09 02:16:38;;;;;;;;;;;3.30;99.90;;;;;;8231118;28;19910;-79
2023/04/09 02:20:38;;;;;;;;;;;3.20;99.90;;;;;;8225564;28;20363;-80
2023/04/09 02:24:42;;;;;;;;;;;3.10;99.90;;;;;;8239425;28;19913;-80
2023/04/09 02:28:42;;;;;;;;;;;3.10;99.90;;;;;;8228356;28;19913;-79
2023/04/09 02:32:42;;;;;;;;;;;3.60;99.90;;;;;;8246776;28;19906;-78
2023/04/09 02:36:43;;;;;;;;;;;3.30;99.90;;;;;;8247843;28;19941;-79
2023/04/09 02:40:43;;;;;;;;;;;3.30;99.90;;;;;;8246485;28;19914;-80
2023/04/09 02:44:44;;;;;;;;;;;3.40;99.90;;;;;;8246143;28;19917;-80
2023/04/09 02:48:44;;;;;;;;;;;3.20;99.90;;;;;;8252500;28;20349;-80
2023/04/09 02:52:46;;;;;;;;;;;3.00;99.90;;;;;;8252290;28;19973;-79
2023/04/09 02:56:46;;;;;;;;;;;3.40;99.90;;;;;;8290865;23;19929;-76
2023/04/09 03:00:47;;;;;;;;;;;3.10;99.90;;;;;;8265744;28;19966;-78
2023/04/09 03:04:47;;;;;;;;;;;3.20;99.90;;;;;;8278141;28;20430;-78
2023/04/09 03:08:48;;;;;;;;;;;2.90;99.90;;;;;;8284970;28;19914;-78
2023/04/09 03:12:48;;;;;;;;;;;2.70;99.90;;;;;;8269033;28;19909;-77
2023/04/09 03:16:48;;;;;;;;;;;2.60;99.90;;;;;;8291738;28;20329;-77
2023/04/09 03:20:49;;;;;;;;;;;2.40;99.90;;;;;;8282381;28;19928;-78
2023/04/09 03:24:49;;;;;;;;;;;2.50;99.90;;;;;;8292572;28;19906;-77
2023/04/09 03:28:50;;;;;;;;;;;2.60;99.90;;;;;;8268361;28;19968;-78
2023/04/09 03:32:50;;;;;;;;;;;2.80;99.90;;;;;;8261102;28;19914;-78
2023/04/09 03:36:51;;;;;;;;;;;2.60;99.90;;;;;;8274300;28;19905;-77
2023/04/09 03:40:51;;;;;;;;;;;2.70;99.90;;;;;;8270491;28;20000;-77
2023/04/09 03:44:52;;;;;;;;;;;2.80;99.90;;;;;;8275983;28;19953;-77
2023/04/09 03:48:52;;;;;;;;;;;2.90;99.90;;;;;;8271490;28;19917;-78
2023/04/09 03:52:53;;;;;;;;;;;3.00;99.90;;;;;;8296764;28;19910;-79
2023/04/09 03:56:53;;;;;;;;;;;3.00;99.90;;;;;;8301911;28;20386;-78
2023/04/09 04:00:54;;;;;;;;;;;3.10;99.90;;;;;;8282533;28;19912;-78
2023/04/09 04:04:54;;;;;;;;;;;3.20;99.90;;;;;;8246991;28;20154;-77
2023/04/09 04:08:55;;;;;;;;;;;2.80;99.90;;;;;;8297073;28;19913;-78
2023/04/09 04:12:55;;;;;;;;;;;2.50;99.90;;;;;;8282591;28;19905;-78
2023/04/09 04:16:56;;;;;;;;;;;2.30;99.90;;;;;;8299652;28;19916;-78
2023/04/09 04:20:56;;;;;;;;;;;2.00;99.90;;;;;;8264678;28;20351;-77
2023/04/09 04:24:57;;;;;;;;;;;1.90;99.90;;;;;;8276033;28;19912;-78
2023/04/09 04:28:57;;;;;;;;;;;1.70;99.90;;;;;;8282583;28;20071;-77
2023/04/09 04:32:58;;;;;;;;;;;1.50;99.90;;;;;;8262666;28;19910;-76
2023/04/09 04:36:58;;;;;;;;;;;1.40;99.90;;;;;;8275123;28;20000;-78
2023/04/09 04:40:59;;;;;;;;;;;1.20;99.90;;;;;;8255010;28;19987;-77
2023/04/09 04:44:59;;;;;;;;;;;1.00;99.90;;;;;;8268571;28;19906;-77
2023/04/09 04:48:59;;;;;;;;;;;1.10;99.90;;;;;;8273024;28;19917;-76
2023/04/09 04:53:00;;;;;;;;;;;1.10;99.90;;;;;;8289777;28;20293;-77
2023/04/09 04:57:01;;;;;;;;;;;1.00;99.90;;;;;;8254095;28;19921;-77
2023/04/09 05:01:01;;;;;;;;;;;1.00;99.90;;;;;;8296634;28;19906;-78
2023/04/09 05:05:02;;;;;;;;;;;1.50;99.90;;;;;;8249605;28;19909;-77
2023/04/09 05:09:02;;;;;;;;;;;1.90;99.90;;;;;;8275686;28;19967;-77
2023/04/09 05:13:03;;;;;;;;;;;1.80;99.90;;;;;;8291091;28;19909;-77
2023/04/09 05:17:03;;;;;;;;;;;1.80;99.90;;;;;;8266660;28;19909;-77
2023/04/09 05:21:04;;;;;;;;;;;2.20;99.90;;;;;;8293127;28;19912;-78
2023/04/09 05:25:04;;;;;;;;;;;2.20;99.90;;;;;;8295958;28;19964;-77
2023/04/09 05:29:05;;;;;;;;;;;2.50;99.90;;;;;;8239996;28;20310;-78
2023/04/09 05:33:05;;;;;;;;;;;2.60;99.90;;;;;;8254370;28;19917;-77
2023/04/09 05:37:06;;;;;;;;;;;3.20;99.90;;;;;;8256516;28;20302;-78
2023/04/09 05:41:06;;;;;;;;;;;3.10;99.90;;;;;;8287417;28;19906;-77
2023/04/09 05:45:07;;;;;;;;;;;3.20;99.90;;;;;;8254239;28;20290;-78
2023/04/09 05:49:08;;;;;;;;;;;3.20;99.90;;;;;;8255127;28;19914;-77
2023/04/09 05:53:08;;;;;;;;;;;3.50;99.90;;;;;;8250755;28;19910;-77
2023/04/09 05:57:09;;;;;;;;;;;3.50;99.90;;;;;;8233552;28;19968;-78
2023/04/09 06:01:10;;;;;;;;;;;3.90;99.90;;;;;;8241614;28;20413;-77
2023/04/09 06:05:10;;;;;;;;;;;4.00;99.90;;;;;;8259631;28;19914;-79
2023/04/09 06:09:11;;;;;;;;;;;4.30;99.90;;;;;;8252452;28;19929;-78
2023/04/09 06:13:11;;;;;;;;;;;4.60;99.90;;;;;;8232063;28;20096;-77
2023/04/09 06:17:12;;;;;;;;;;;4.90;99.90;;;;;;8240893;28;19918;-76
2023/04/09 06:21:13;;;;;;;;;;;4.90;99.90;;;;;;8259058;28;19916;-78
2023/04/09 06:25:13;;;;;;;;;;;5.00;99.90;;;;;;8269779;28;19910;-78
2023/04/09 06:29:14;;;;;;;;;;;4.80;99.90;;;;;;8267615;28;20350;-78
2023/04/09 06:33:14;;;;;;;;;;;4.80;99.90;;;;;;8282549;28;20068;-77
2023/04/09 06:37:15;;;;;;;;;;;5.00;99.90;;;;;;8268365;28;19913;-78
2023/04/09 06:41:15;;;;;;;;;;;5.00;99.90;;;;;;8283917;28;19910;-77
2023/04/09 06:45:16;;;;;;;;;;;5.40;99.90;;;;;;8258068;28;19910;-78
2023/04/09 06:49:16;;;;;;;;;;;5.60;99.90;;;;;;8241473;28;19922;-78
2023/04/09 06:53:17;;;;;;;;;;;5.70;99.90;;;;;;8272511;28;19916;-79
2023/04/09 06:57:17;;;;;;;;;;;5.70;99.90;;;;;;8254854;28;19941;-78
2023/04/09 07:01:18;;;;;;;;;;;6.00;99.90;;;;;;8251712;28;19921;-77
2023/04/09 07:05:19;;;;;;;;;;;6.30;99.90;;;;;;8277984;28;19910;-77
2023/04/09 07:09:19;;;;;;;;;;;6.70;99.90;;;;;;8297982;28;19910;-77
2023/04/09 07:13:20;;;;;;;;;;;7.00;99.90;;;;;;8259202;28;19909;-78
2023/04/09 07:17:20;;;;;;;;;;;6.80;99.90;;;;;;8261673;28;19914;-77
2023/04/09 07:21:21;;;;;;;;;;;6.30;99.90;;;;;;8269742;28;19935;-78
2023/04/09 07:25:21;;;;;;;;;;;6.10;99.90;;;;;;8284517;28;19906;-77
2023/04/09 07:29:22;;;;;;;;;;;6.50;99.90;;;;;;8277823;28;19996;-79
2023/04/09 07:33:22;;;;;;;;;;;6.70;99.90;;;;;;8278362;28;20016;-76
2023/04/09 07:37:23;;;;;;;;;;;7.10;99.90;;;;;;8286612;28;19913;-78
2023/04/09 07:41:23;;;;;;;;;;;7.40;99.90;;;;;;8259387;28;19920;-77
2023/04/09 07:45:24;;;;;;;;;;;7.20;99.90;;;;;;8282272;28;20402;-77
2023/04/09 07:49:24;;;;;;;;;;;6.30;99.90;;;;;;8256738;28;19909;-77
2023/04/09 07:53:25;;;;;;;;;;;6.00;99.90;;;;;;8254960;28;19916;-77
2023/04/09 07:57:26;;;;;;;;;;;6.30;99.90;;;;;;8296116;28;20282;-77
2023/04/09 08:01:26;;;;;;;;;;;6.40;99.90;;;;;;8259010;28;19913;-78
2023/04/09 08:05:27;;;;;;;;;;;6.50;99.90;;;;;;8264208;28;19917;-77
2023/04/09 08:09:28;;;;;;;;;;;6.70;99.90;;;;;;8249983;28;19921;-77
2023/04/09 08:13:28;;;;;;;;;;;7.10;99.90;;;;;;8259432;28;19910;-76
2023/04/09 08:17:29;;;;;;;;;;;8.10;99.90;;;;;;8255294;28;19913;-76
2023/04/09 08:21:31;;;;;;;;;;;8.60;99.90;;;;;;8234419;28;19918;-77
2023/04/09 08:25:31;;;;;;;;;;;8.40;99.90;;;;;;8294289;28;19909;-77
2023/04/09 08:29:33;;;;;;;;;;;8.40;99.90;;;;;;8260380;28;20318;-78
2023/04/09 08:33:33;;;;;;;;;;;9.00;99.90;;;;;;8251783;28;19910;-80
2023/04/09 08:37:34;;;;;;;;;;;9.80;99.90;;;;;;8257490;28;19937;-83
2023/04/09 08:41:37;;;;;;;;;;;10.10;99.90;;;;;;8281417;28;19912;-82
2023/04/09 08:45:39;;;;;;;;;;;9.50;99.90;;;;;;8267854;28;19916;-82
2023/04/09 08:49:40;;;;;;;;;;;8.70;99.90;;;;;;8240018;28;19921;-83
2023/04/09 08:54:00;;;;;;;;;;;8.70;99.90;;;;;;8242844;28;19934;-83
2023/04/09 09:02:07;;;;;;;;;;;8.20;99.90;;;;;;8275611;28;19925;-80
2023/04/09 09:06:19;;;;;;;;;;;7.90;99.90;;;;;;8281198;28;20441;-79
2023/04/09 09:10:19;;;;;;;;;;;8.60;99.90;;;;;;8267254;28;20361;-81
2023/04/09 09:14:20;;;;;;;;;;;8.60;99.90;;;;;;8242525;28;19914;-81
2023/04/09 09:18:41;;;;;;;;;;;9.20;99.90;;;;;;8260783;28;19976;-80
2023/04/09 09:22:48;;;;;;;;;;;9.70;99.90;;;;;;8253335;28;19914;-80
2023/04/09 09:26:49;;;;;;;;;;;10.20;99.90;;;;;;8256832;28;19961;-81
2023/04/09 09:30:50;;;;;;;;;;;10.40;99.90;;;;;;8262206;28;19956;-80
2023/04/09 09:34:58;;;;;;;;;;;11.40;99.90;;;;;;8258463;28;19906;-80
2023/04/09 09:39:02;;;;;;;;;;;11.90;99.90;;;;;;8260529;28;19917;-81
2023/04/09 09:43:02;;;;;;;;;;;12.00;99.90;;;;;;8262433;28;20004;-81
2023/04/09 09:47:03;;;;;;;;;;;11.30;99.90;;;;;;8263103;28;20310;-81
2023/04/09 09:51:08;;;;;;;;;;;10.90;99.90;;;;;;8261207;28;19914;-80
2023/04/09 09:55:10;;;;;;;;;;;11.00;99.90;;;;;;8263578;28;19913;-80
2023/04/09 09:59:22;;;;;;;;;;;11.30;99.90;;;;;;8258530;28;19996;-80
2023/04/09 10:03:26;;;;;;;;;;;11.70;99.90;;;;;;8258063;28;19905;-80
2023/04/09 10:07:27;;;;;;;;;;;11.90;99.90;;;;;;8259695;28;19929;-80
2023/04/09 10:11:28;;;;;;;;;;;10.90;99.90;;;;;;8272725;28;19921;-80
2023/04/09 10:15:28;;;;;;;;;;;10.20;99.90;;;;;;8256136;28;20002;-80
2023/04/09 10:19:30;;;;;;;;;;;10.70;99.90;;;;;;8254758;28;19909;-81
2023/04/09 10:23:41;;;;;;;;;;;11.10;99.90;;;;;;8253054;28;19963;-81
2023/04/09 10:27:47;;;;;;;;;;;11.70;99.90;;;;;;8261229;28;19914;-80
2023/04/09 10:32:05;;;;;;;;;;;11.70;99.90;;;;;;8258360;28;20052;-80
2023/04/09 10:36:11;;;;;;;;;;;12.10;99.90;;;;;;8263286;28;19913;-81
2023/04/09 10:40:18;;;;;;;;;;;12.80;99.90;;;;;;8261548;28;19929;-81
2023/04/09 10:44:19;;;;;;;;;;;11.80;99.90;;;;;;8257809;28;19921;-80
2023/04/09 10:48:20;;;;;;;;;;;10.90;99.90;;;;;;8257101;28;20378;-81
2023/04/09 10:52:29;;;;;;;;;;;10.90;99.90;;;;;;8261118;28;19905;-81
2023/04/09 10:56:29;;;;;;;;;;;11.70;99.90;;;;;;8263083;28;19906;-80
2023/04/09 11:00:30;;;;;;;;;;;10.90;99.90;;;;;;8257656;28;19959;-79
2023/04/09 11:04:37;;;;;;;;;;;10.80;99.90;;;;;;8261376;28;19957;-81
2023/04/09 11:08:38;;;;;;;;;;;12.40;99.90;;;;;;8266209;28;19932;-81
2023/04/09 11:12:39;;;;;;;;;;;14.40;99.90;;;;;;8266177;28;19917;-81
2023/04/09 11:16:39;;;;;;;;;;;14.70;99.90;;;;;;8266550;28;19906;-79
2023/04/09 11:20:40;;;;;;;;;;;14.40;99.90;;;;;;8259601;28;19917;-81
2023/04/09 11:24:41;;;;;;;;;;;14.80;98.40;;;;;;8275905;28;19912;-80
2023/04/09 11:28:41;;;;;;;;;;;14.80;97.80;;;;;;8267321;28;19936;-80
2023/04/09 11:32:42;;;;;;;;;;;15.70;98.30;;;;;;8266538;28;19905;-81
2023/04/09 11:36:47;;;;;;;;;;;15.30;95.10;;;;;;8264238;28;19929;-80
2023/04/09 11:40:48;;;;;;;;;;;14.90;94.40;;;;;;8268012;28;20271;-80
2023/04/09 11:44:49;;;;;;;;;;;14.70;93.60;;;;;;8268137;28;19961;-81
2023/04/09 11:48:49;;;;;;;;;;;14.10;93.80;;;;;;8265440;28;20258;-81
2023/04/09 11:52:50;;;;;;;;;;;14.60;96.50;;;;;;8262729;28;19918;-81
2023/04/09 11:56:54;;;;;;;;;;;14.60;95.90;;;;;;8268361;28;20043;-80
2023/04/09 12:00:57;;;;;;;;;;;12.80;99.50;;;;;;8255562;28;19925;-80
2023/04/09 12:05:01;;;;;;;;;;;14.00;95.50;;;;;;8264215;28;19988;-81
2023/04/09 12:09:02;;;;;;;;;;;14.20;94.50;;;;;;8259346;28;19918;-81
2023/04/09 12:13:05;;;;;;;;;;;13.70;95.30;;;;;;8266407;28;19905;-80
2023/04/09 12:17:07;;;;;;;;;;;13.70;96.90;;;;;;8270353;28;19909;-80
2023/04/09 12:21:07;;;;;;;;;;;14.80;96.70;;;;;;8287566;28;20409;-80
2023/04/09 12:25:08;;;;;;;;;;;17.10;94.30;;;;;;8261799;28;19910;-80
2023/04/09 12:29:08;;;;;;;;;;;16.30;97.20;;;;;;8261634;28;20470;-81
2023/04/09 12:33:09;;;;;;;;;;;17.70;89.70;;;;;;8258677;28;20337;-80
2023/04/09 12:37:09;;;;;;;;;;;17.70;79.80;;;;;;8263401;28;19921;-81
2023/04/09 12:41:10;;;;;;;;;;;16.00;88.90;;;;;;8261918;28;19905;-81
2023/04/09 12:45:12;;;;;;;;;;;15.80;88.10;;;;;;8262741;28;19912;-81
2023/04/09 12:49:13;;;;;;;;;;;15.40;91.30;;;;;;8253654;28;19956;-80
2023/04/09 12:53:13;;;;;;;;;;;14.90;90.90;;;;;;8252684;28;20755;-80
2023/04/09 12:57:14;;;;;;;;;;;14.80;90.60;;;;;;8260940;28;20066;-81
2023/04/09 13:01:14;;;;;;;;;;;14.90;92.20;;;;;;8260933;28;19913;-81
2023/04/09 13:05:15;;;;;;;;;;;17.70;86.00;;;;;;8254350;28;19914;-80
2023/04/09 13:09:15;;;;;;;;;;;18.30;79.30;;;;;;8260247;28;19921;-81
2023/04/09 13:13:16;;;;;;;;;;;15.90;87.50;;;;;;8261051;28;19964;-81
2023/04/09 13:17:17;;;;;;;;;;;15.10;89.80;;;;;;8262954;28;19992;-81
2023/04/09 13:21:17;;;;;;;;;;;15.80;91.30;;;;;;8260560;28;20350;-81
2023/04/09 13:25:18;;;;;;;;;;;17.00;85.10;;;;;;8262061;28;19905;-81
2023/04/09 13:29:18;;;;;;;;;;;16.00;90.30;;;;;;8262711;28;19913;-81
2023/04/09 13:33:19;;;;;;;;;;;13.90;92.40;;;;;;8261316;28;19913;-80
2023/04/09 13:37:20;;;;;;;;;;;12.70;95.10;;;;;;8261025;28;19913;-81
2023/04/09 13:41:26;;;;;;;;;;;13.10;94.30;;;;;;8261239;28;20000;-80
2023/04/09 13:45:26;;;;;;;;;;;16.10;91.50;;;;;;8260091;28;20394;-81
2023/04/09 13:49:29;;;;;;;;;;;17.00;84.00;;;;;;8260658;28;19920;-81
2023/04/09 13:53:29;;;;;;;;;;;15.10;89.70;;;;;;8258637;28;19988;-80
2023/04/09 13:57:30;;;;;;;;;;;14.80;90.10;;;;;;8261906;28;20297;-81
2023/04/09 14:01:30;;;;;;;;;;;17.50;86.60;;;;;;8262337;28;19914;-80
2023/04/09 14:05:34;;;;;;;;;;;19.30;82.70;;;;;;8252013;28;20476;-79
2023/04/09 14:09:34;;;;;;;;;;;20.80;73.80;;;;;;8252435;28;20277;-81
2023/04/09 14:13:35;;;;;;;;;;;19.50;80.60;;;;;;8266846;28;20005;-80
2023/04/09 14:17:35;;;;;;;;;;;16.80;88.60;;;;;;8256593;28;19909;-80
2023/04/09 14:21:36;;;;;;;;;;;14.10;89.70;;;;;;8265616;28;19937;-80
2023/04/09 14:25:37;;;;;;;;;;;12.60;93.00;;;;;;8259285;28;19910;-80
2023/04/09 14:29:37;;;;;;;;;;;12.10;94.20;;;;;;8267744;28;19944;-80
2023/04/09 14:33:37;;;;;;;;;;;11.80;95.60;;;;;;8256114;28;19924;-81
2023/04/09 14:37:39;;;;;;;;;;;12.50;94.30;;;;;;8265751;28;19997;-81
2023/04/09 14:41:40;;;;;;;;;;;15.20;89.80;;;;;;8265659;28;19928;-80
2023/04/09 14:45:41;;;;;;;;;;;17.80;79.90;;;;;;8265143;28;19906;-81
2023/04/09 14:49:41;;;;;;;;;;;18.90;75.80;;;;;;8266044;28;19948;-80
2023/04/09 14:53:41;;;;;;;;;;;19.90;71.10;;;;;;8266069;28;20017;-81
2023/04/09 14:57:42;;;;;;;;;;;20.50;70.30;;;;;;8265786;28;19906;-81
2023/04/09 15:05:46;;;;;;;;;;;17.90;74.50;;;;;;8272044;28;20185;-78
2023/04/09 15:09:47;;;;;;;;;;;15.80;79.60;;;;;;8270985;28;19910;-78
2023/04/09 15:13:47;;;;;;;;;;;14.20;84.00;;;;;;8251482;28;20374;-78
2023/04/09 15:17:48;;;;;;;;;;;13.70;91.60;;;;;;8282016;28;19910;-78
2023/04/09 15:21:48;;;;;;;;;;;13.00;91.60;;;;;;8273688;28;19913;-78
2023/04/09 15:25:49;;;;;;;;;;;12.10;92.10;;;;;;8266512;28;19937;-76
2023/04/09 15:29:50;;;;;;;;;;;11.50;94.90;;;;;;8257418;28;19929;-78
2023/04/09 15:33:51;;;;;;;;;;;10.90;95.10;;;;;;8278921;28;19913;-77
2023/04/09 15:37:51;;;;;;;;;;;12.40;95.10;;;;;;8261364;28;19924;-77
2023/04/09 15:41:51;;;;;;;;;;;15.60;91.20;;;;;;8254607;28;19917;-79
2023/04/09 15:45:52;;;;;;;;;;;17.50;80.90;;;;;;8277097;28;19925;-78
2023/04/09 15:49:53;;;;;;;;;;;16.10;81.00;;;;;;8274196;28;20592;-77
2023/04/09 15:53:54;;;;;;;;;;;15.10;89.20;;;;;;8256128;28;19914;-77
2023/04/09 15:57:54;;;;;;;;;;;16.90;80.70;;;;;;8283471;28;20006;-77
2023/04/09 16:01:55;;;;;;;;;;;17.30;82.30;;;;;;8277826;28;19936;-78
2023/04/09 16:05:55;;;;;;;;;;;16.30;82.40;;;;;;8276839;28;20703;-77
2023/04/09 16:09:56;;;;;;;;;;;15.20;83.10;;;;;;8283951;28;19999;-77
2023/04/09 16:13:57;;;;;;;;;;;13.40;87.30;;;;;;8254513;28;19916;-76
2023/04/09 16:17:58;;;;;;;;;;;12.40;90.60;;;;;;8275120;28;20413;-77
2023/04/09 16:21:58;;;;;;;;;;;11.90;90.60;;;;;;8268741;28;19910;-78
2023/04/09 16:25:59;;;;;;;;;;;11.80;91.30;;;;;;8274135;28;19906;-77
2023/04/09 16:29:59;;;;;;;;;;;11.70;91.50;;;;;;8257740;28;19909;-77
2023/04/09 16:34:00;;;;;;;;;;;11.60;92.30;;;;;;8280510;28;19917;-78
2023/04/09 16:38:00;;;;;;;;;;;11.60;93.40;;;;;;8257713;28;19917;-77
2023/04/09 16:42:01;;;;;;;;;;;11.10;95.20;;;;;;8269401;28;19913;-79
2023/04/09 16:46:05;;;;;;;;;;;10.80;96.10;;;;;;8277551;28;20309;-77
2023/04/09 16:50:09;;;;;;;;;;;10.70;95.10;;;;;;8274889;28;19945;-77
2023/04/09 16:54:09;;;;;;;;;;;10.50;95.80;;;;;;8272165;28;19909;-77
2023/04/09 16:58:10;;;;;;;;;;;10.30;97.30;;;;;;8245994;28;19921;-78
2023/04/09 17:02:10;;;;;;;;;;;10.10;97.70;;;;;;8276659;28;19909;-77
2023/04/09 17:06:11;;;;;;;;;;;9.90;98.20;;;;;;8245801;28;19906;-77
2023/04/09 17:10:11;;;;;;;;;;;9.80;98.20;;;;;;8268590;28;19913;-76
2023/04/09 17:14:11;;;;;;;;;;;9.60;98.50;;;;;;8252637;28;19906;-78
2023/04/09 17:18:12;;;;;;;;;;;9.60;99.00;;;;;;8258593;28;19906;-78
2023/04/09 17:22:12;;;;;;;;;;;9.30;99.90;;;;;;8252008;28;19952;-77
2023/04/09 17:26:14;;;;;;;;;;;9.20;99.90;;;;;;8255442;28;19998;-77
2023/04/09 17:30:14;;;;;;;;;;;9.10;99.90;;;;;;8277397;28;20004;-77
2023/04/09 17:34:15;;;;;;;;;;;9.00;99.90;;;;;;8278443;28;19910;-78
2023/04/09 17:38:19;;;;;;;;;;;8.80;99.90;;;;;;8264445;28;20008;-77
2023/04/09 17:42:22;;;;;;;;;;;8.60;99.90;;;;;;8246548;28;19910;-79
2023/04/09 17:46:22;;;;;;;;;;;8.60;99.90;;;;;;8244768;28;19944;-76
2023/04/09 17:50:23;;;;;;;;;;;8.50;99.90;;;;;;8266016;28;19945;-78
2023/04/09 17:54:24;;;;;;;;;;;8.30;99.90;;;;;;8250784;28;20346;-77
2023/04/09 17:58:25;;;;;;;;;;;8.00;99.90;;;;;;8250187;28;19905;-77
2023/04/09 18:02:26;;;;;;;;;;;7.80;99.90;;;;;;8252622;28;19917;-76
2023/04/09 18:06:27;;;;;;;;;;;7.60;99.90;;;;;;8261490;28;19905;-77
2023/04/09 18:10:27;;;;;;;;;;;7.40;99.90;;;;;;8252859;28;19910;-77
2023/04/09 18:14:31;;;;;;;;;;;7.20;99.90;;;;;;8256427;28;19909;-77
2023/04/09 18:18:31;;;;;;;;;;;7.00;99.90;;;;;;8244001;28;19905;-78
2023/04/09 18:22:33;;;;;;;;;;;6.80;99.90;;;;;;8269770;28;20290;-77
2023/04/09 18:26:35;;;;;;;;;;;6.50;99.90;;;;;;8258419;28;19909;-77
2023/04/09 18:30:37;;;;;;;;;;;6.50;99.90;;;;;;8266808;28;19920;-79
2023/04/09 18:34:38;;;;;;;;;;;6.10;99.90;;;;;;8269430;28;20004;-77
2023/04/09 18:38:39;;;;;;;;;;;5.60;99.90;;;;;;8275459;28;19906;-77
2023/04/09 18:42:39;;;;;;;;;;;5.80;99.90;;;;;;8270643;28;19991;-77
2023/04/09 18:46:40;;;;;;;;;;;5.80;99.90;;;;;;8261216;28;20269;-77
2023/04/09 18:50:40;;;;;;;;;;;5.60;99.90;;;;;;8256518;28;19961;-76
2023/04/09 18:54:41;;;;;;;;;;;5.60;99.90;;;;;;8270743;28;19916;-75
2023/04/09 18:58:42;;;;;;;;;;;5.40;99.90;;;;;;8275224;28;19967;-76
2023/04/09 19:02:42;;;;;;;;;;;5.20;99.90;;;;;;8255935;28;19913;-76
2023/04/09 19:06:45;;;;;;;;;;;5.30;99.90;;;;;;8255087;28;19948;-77
2023/04/09 19:10:46;;;;;;;;;;;5.30;99.90;;;;;;8256631;28;19923;-76
2023/04/09 19:14:47;;;;;;;;;;;5.30;99.90;;;;;;8270070;28;19924;-77
2023/04/09 19:18:47;;;;;;;;;;;5.20;99.90;;;;;;8255443;28;20122;-76
2023/04/09 19:22:48;;;;;;;;;;;5.10;99.90;;;;;;8277847;28;19909;-76
2023/04/09 19:26:49;;;;;;;;;;;5.10;99.90;;;;;;8276282;28;19924;-75
2023/04/09 19:30:51;;;;;;;;;;;4.90;99.90;;;;;;8253171;28;20421;-76
2023/04/09 19:34:51;;;;;;;;;;;4.70;99.90;;;;;;8261030;28;19964;-77
2023/04/09 19:38:52;;;;;;;;;;;4.70;99.90;;;;;;8288571;28;19925;-76
2023/04/09 19:42:52;;;;;;;;;;;4.50;99.90;;;;;;8260941;28;19920;-76
2023/04/09 19:46:53;;;;;;;;;;;4.20;99.90;;;;;;8271346;28;20012;-76
2023/04/09 19:50:53;;;;;;;;;;;4.40;99.90;;;;;;8275838;28;19928;-76
2023/04/09 19:54:55;;;;;;;;;;;4.20;99.90;;;;;;8269894;28;19913;-75
2023/04/09 19:58:55;;;;;;;;;;;4.00;99.90;;;;;;8258743;28;20765;-76
2023/04/09 20:02:56;;;;;;;;;;;3.80;99.90;;;;;;8274068;28;19918;-76
2023/04/09 20:06:56;;;;;;;;;;;3.70;99.90;;;;;;8245266;28;20000;-77
2023/04/09 20:10:57;;;;;;;;;;;3.70;99.90;;;;;;8249230;28;19952;-76
2023/04/09 20:14:57;;;;;;;;;;;3.60;99.90;;;;;;8256015;28;19959;-77
2023/04/09 20:18:57;;;;;;;;;;;3.70;99.90;;;;;;8265408;28;19910;-75
2023/04/09 20:22:58;;;;;;;;;;;4.20;99.90;;;;;;8251413;28;19909;-76
2023/04/09 20:26:58;;;;;;;;;;;4.20;99.90;;;;;;8244762;28;19909;-77
2023/04/09 20:31:01;;;;;;;;;;;4.40;99.90;;;;;;8257458;28;20389;-76
2023/04/09 20:35:01;;;;;;;;;;;4.50;99.90;;;;;;8254490;28;19920;-75
2023/04/09 20:39:02;;;;;;;;;;;4.60;99.90;;;;;;8249493;28;19921;-76
2023/04/09 20:43:02;;;;;;;;;;;4.60;99.90;;;;;;8271944;28;19995;-76
2023/04/09 20:47:03;;;;;;;;;;;4.80;99.90;;;;;;8251582;28;19918;-76
2023/04/09 20:51:07;;;;;;;;;;;5.00;99.90;;;;;;8259657;28;19917;-75
2023/04/09 20:55:08;;;;;;;;;;;4.90;99.90;;;;;;8245680;28;19949;-76
2023/04/09 20:59:08;;;;;;;;;;;4.80;99.90;;;;;;8252736;28;20298;-76
2023/04/09 21:03:08;;;;;;;;;;;5.00;99.90;;;;;;8259589;28;20309;-75
2023/04/09 21:07:09;;;;;;;;;;;5.00;99.90;;;;;;8269503;28;20328;-75
2023/04/09 21:11:10;;;;;;;;;;;4.60;99.90;;;;;;8251723;28;19914;-77
2023/04/09 21:15:10;;;;;;;;;;;4.40;99.90;;;;;;8262545;28;20371;-76
2023/04/09 21:19:11;;;;;;;;;;;4.30;99.90;;;;;;8253041;28;19968;-76
2023/04/09 21:23:12;;;;;;;;;;;4.20;99.90;;;;;;8266563;28;19910;-75
2023/04/09 21:27:13;;;;;;;;;;;4.60;99.90;;;;;;8277949;28;19905;-75
2023/04/09 21:31:14;;;;;;;;;;;4.30;99.90;;;;;;8246631;28;20298;-76
2023/04/09 21:35:15;;;;;;;;;;;4.00;99.90;;;;;;8260839;28;19917;-74
2023/04/09 21:39:15;;;;;;;;;;;4.10;99.90;;;;;;8255655;28;19910;-76
2023/04/09 21:43:16;;;;;;;;;;;4.40;99.90;;;;;;8254352;28;19965;-75
2023/04/09 21:47:16;;;;;;;;;;;4.20;99.90;;;;;;8276883;28;19906;-76
2023/04/09 21:51:16;;;;;;;;;;;4.10;99.90;;;;;;8250919;28;19941;-76
2023/04/09 21:55:17;;;;;;;;;;;4.20;99.90;;;;;;8244143;28;19957;-77
2023/04/09 21:59:17;;;;;;;;;;;4.00;99.90;;;;;;8248107;28;19909;-76
2023/04/09 22:03:18;;;;;;;;;;;3.60;99.90;;;;;;8270199;28;19914;-76
2023/04/09 22:07:19;;;;;;;;;;;3.40;99.90;;;;;;8248078;28;19921;-76
2023/04/09 22:11:22;;;;;;;;;;;3.00;99.90;;;;;;8243544;28;19909;-75
2023/04/09 22:15:22;;;;;;;;;;;2.90;99.90;;;;;;8261338;28;19968;-76
2023/04/09 22:19:28;;;;;;;;;;;3.00;99.90;;;;;;8248951;28;19906;-76
2023/04/09 22:23:29;;;;;;;;;;;2.90;99.90;;;;;;8243198;28;19906;-77
2023/04/09 22:27:29;;;;;;;;;;;3.10;99.90;;;;;;8260928;28;19912;-76
2023/04/09 22:31:30;;;;;;;;;;;2.90;99.90;;;;;;8250666;28;19956;-76
2023/04/09 22:35:30;;;;;;;;;;;2.50;99.90;;;;;;8273182;28;20281;-76
2023/04/09 22:39:31;;;;;;;;;;;2.20;99.90;;;;;;8268294;28;19905;-77
2023/04/09 22:43:31;;;;;;;;;;;2.10;99.90;;;;;;8268803;28;19921;-77
2023/04/09 22:47:32;;;;;;;;;;;1.90;99.90;;;;;;8257726;28;19945;-76
2023/04/09 22:51:35;;;;;;;;;;;1.80;99.90;;;;;;8266732;28;19933;-76
2023/04/09 22:55:37;;;;;;;;;;;1.80;99.90;;;;;;8252792;28;19949;-76
2023/04/09 22:59:37;;;;;;;;;;;1.90;99.90;;;;;;8252656;28;19913;-76
2023/04/09 23:03:37;;;;;;;;;;;1.80;99.90;;;;;;8258820;28;19914;-75
2023/04/09 23:07:38;;;;;;;;;;;1.70;99.90;;;;;;8255641;28;20309;-75
2023/04/09 23:11:38;;;;;;;;;;;1.80;99.90;;;;;;8247476;28;19981;-77
2023/04/09 23:15:40;;;;;;;;;;;1.60;99.90;;;;;;8254252;28;20297;-76
2023/04/09 23:19:40;;;;;;;;;;;1.50;99.90;;;;;;8248747;28;19949;-76
2023/04/09 23:23:41;;;;;;;;;;;1.30;99.90;;;;;;8273094;28;20420;-75
2023/04/09 23:27:41;;;;;;;;;;;1.20;99.90;;;;;;8248449;28;19933;-76
2023/04/09 23:31:42;;;;;;;;;;;1.30;99.90;;;;;;8257129;28;19921;-76
2023/04/09 23:35:42;;;;;;;;;;;1.10;99.90;;;;;;8260951;28;19909;-75
2023/04/09 23:39:43;;;;;;;;;;;1.00;99.90;;;;;;8273357;28;20346;-76
2023/04/09 23:43:43;;;;;;;;;;;0.90;99.90;;;;;;8279333;28;19996;-76
2023/04/09 23:47:44;;;;;;;;;;;1.10;99.90;;;;;;8271419;28;19933;-76